Arlington, OR

2:15 PM PDT on October 24, 2014 (GMT -0700)
KORARLIN2 | Change Station
CLOSE
Current Station
Personal Weather Station
Location: Arlington, OR
Elevation: 890 ft
Nearby Weather Stations
Active Advisory: Special Statement Active Notice: Public Information Statement

Elev 890 ft 45.72 °N, 120.18 °W | Updated 2 minutes ago

Rain
Rain
54.3 °F
Feels Like 54.3 °F
N
3.0
Wind Variable Wind from East
Gusts 3.0 mph

Today
High -- | Low -- °F
--% Chance of Precip.
Yesterday
High -- | Low -- °F
Precip. -- in
7:29 AM 5:59 PM
New Moon, 1% visible
Pressure 30.00 in
Visibility 10.0 miles
Clouds Clear
Dew Point 48 °F
Humidity 79%
Rainfall 0.00 in
Snow Depth Not available.
UV 0.6 out of 12
Pollen .90 out of 12
Air Quality Not available.
Flu Activity Sporadic
METAR KHRI 242053Z AUTO 02005KT 10SM CLR 14/10 A3000 RMK AO2 SLP157 T01440100 56021 $

More Conditions Fewer Conditions

Pressure 30.00 in
Visibility 10.0 miles
Clouds Clear
Dew Point 48 °F
Humidity 79%
Rainfall 0.00 in
Snow Depth Not available.
UV 0.6 out of 12
Pollen .90 out of 12
Air Quality Not available.
Flu Activity Sporadic
METAR KHRI 242053Z AUTO 02005KT 10SM CLR 14/10 A3000 RMK AO2 SLP157 T01440100 56021 $

More Conditions Fewer Conditions

10-Day Weather Forecast

Almanac

Astronomy

Oct. 24, 2014 Rise Set
Actual Time 7:29 AM PDT 5:59 PM PDT
Civil Twilight 6:59 AM PDT 6:29 PM PDT
Nautical Twilight 6:24 AM PDT 7:04 PM PDT
Astronomical Twilight 5:49 AM PDT 7:38 PM PDT
Moon 8:15 AM PDT 6:40 PM PDT
Length of Visible Light 11h 30m
Length of Day
10h 29m
Tomorrow will be 2m 59s shorter.
New Moon, 1% of the Moon is Illuminated
Today
New Moon
Oct 30
First Quarter
Nov 6
Full
Nov 14
Last Quarter
Nov 22
New

Today's Extremes

State Highs State Lows

Community

WunderPhotos

Upload Photos

1,764,659 photos uploaded!

WunderBlogs® & News

By Dr. Jeff Masters
Director of Meteorology, Weather Underground
By Kari Strenfel
Meteorologist, Weather Underground
By Christopher C. Burt
Weather Historian, Weather Underground
October 24, 2014
October 24, 2014
October 24, 2014

Nearby

Snow Depth

Station Depth Elevation
Madison Butte 0 in 5250 ft
Arbuckle Mountain 1 in 5400 ft
Lucky Strike 2 in 5050 ft
Greenpoint 0 in 3200 ft
Mud Ridge 0 in 3800 ft

Earthquake Activity

City Distance Mag. Time & Date
No recent earthquake activity has been reported nearby.
Minimum magnitude displayed is 2.5.

Coastal Water Temperatures

Place Temperature
No Stations Reporting

Nearby Weather Stations